Skip Navigation Links
NOAA logo - Click to go to the NOAA homepage
NOAA's National Weather Service
Alaska Aviation Weather Unit
  NWS logo - Click to go to the NWS homepage
Left Navbar Graphic     00 AKDT = 08 GMT

   
NOAA is celebrating 200 years of science, service, and stewardship. Visit the NOAA 200th celebration Web site to learn more.
USA.gov is the U.S. Government's official Web portal to all Federal, state and local government Web resources and services.
Facebook
NWS on Facebook

Important Change Regarding the AAWU Web Presence

 

Over the last several months, the AAWU has been working to navigate its webpages to a nationally supported server. Security, as well as other needs, have necessitated the change.  We have been given an extension for the site changeover while we diligently work at addressing feedback received. As of July 14, 2017, aawu.arh.noaa.gov will be discontinued. The new AAWU web address is weather.gov/aawu. It is now live and will run in-parallel with the old site until it is discontinued on July 14, 2017. Please continue to send any feedback or questions regarding the new webpages to nws.ar.aawu.webauthors@noaa.gov.  Thank you for your patience during this time of transition.
AAWU Home :: Display TAF Add Bookmark
TAF PACV 240541Z 2406/2506  07006KT P6SM -RA SCT020 OVC040
     FM241200 10010KT 5SM -RA BR SCT015 OVC025
      TEMPO 2417/2421 P6SM -RA SCT025 BKN040=

4446
FTAK31 PANC 240541
TAFADQ
TAF

METAR PACV 240253Z 06003KT 10SM -RA OVC032 12/09 A2962 RMK AO2 RAB16 SLP029 P0001 60001 T01170094 56021= METAR PACV 240353Z VRB03KT 10SM -RA BKN032 OVC060 12/10 A2960 RMK AO2 SLP024 P0000 T01170100= METAR PACV 240453Z 05003KT 10SM -RA FEW049 OVC060 11/10 A2959 RMK AO2 SLP019 P0002 T01110100= METAR PACV 240553Z 05003KT 8SM -RA FEW033 BKN046 OVC060 11/10 A2957 RMK AO2 SLP013 P0003 60006 T01060100 10122 20106 58016= METAR PACV 240653Z VRB03KT 10SM -RA OVC033 11/10 A2956 RMK AO2 SLP010 P0003 T01110100= METAR PACV 240753Z 00000KT 10SM -RA OVC034 11/10 A2954 RMK AO2 SLP003 P0002 T01110100=
 Alaska TAF Map

NOAA's National Weather Service
Alaska Aviation Weather Unit
6930 Sand Lake Road
Anchorage, AK 99502-1845
Disclaimer
Credits
Glossary
Privacy Policy
About Us
Career Opportunities
Contact AAWU Internet Services Site last modified: April, 17th 2012